Time;durP1;ratioP1;P1;durP2;ratioP2;P2;SDS_P1;SDS_P2;PMS_P1;PMS_P2;Temp;Humidity;BMP_temperature;BMP_pressure;BME280_temperature;BME280_humidity;BME280_pressure;Samples;Min_cycle;Max_cycle;Signal;HPM_P1;HPM_P2
2022/04/16 00:00:03;;;;;;;2.20;2.10;;;;;;;;;;5046644;28;21149;-74
2022/04/16 00:02:29;;;;;;;2.20;1.97;;;;;;;;;;5048330;28;20541;-74
2022/04/16 00:04:57;;;;;;;4.50;2.10;;;;;;;;;;5046775;28;20447;-76
2022/04/16 00:07:23;;;;;;;2.63;2.63;;;;;;;;;;5045586;28;20466;-74
2022/04/16 00:09:49;;;;;;;2.97;2.77;;;;;;;;;;5046152;28;20579;-73
2022/04/16 00:12:15;;;;;;;2.87;2.67;;;;;;;;;;5046385;28;20457;-75
2022/04/16 00:14:41;;;;;;;2.63;2.53;;;;;;;;;;5044801;28;20477;-74
2022/04/16 00:17:07;;;;;;;2.53;2.17;;;;;;;;;;5047724;28;20426;-74
2022/04/16 00:19:33;;;;;;;2.03;2.03;;;;;;;;;;5048599;28;21020;-75
2022/04/16 00:22:00;;;;;;;3.10;2.80;;;;;;;;;;5047997;28;20473;-77
2022/04/16 00:24:28;;;;;;;1.87;1.77;;;;;;;;;;5046888;28;20784;-73
2022/04/16 00:26:54;;;;;;;2.37;2.27;;;;;;;;;;5045075;28;20956;-74
2022/04/16 00:29:20;;;;;;;2.40;2.37;;;;;;;;;;5049132;28;20414;-74
2022/04/16 00:31:45;;;;;;;5.17;2.40;;;;;;;;;;5047170;28;20500;-73
2022/04/16 00:34:14;;;;;;;2.30;2.30;;;;;;;;;;5046054;28;20525;-73
2022/04/16 00:36:40;;;;;;;3.00;2.20;;;;;;;;;;5045628;28;20507;-73
2022/04/16 00:39:06;;;;;;;4.10;2.03;;;;;;;;;;5048942;28;20850;-74
2022/04/16 00:41:32;;;;;;;2.10;2.10;;;;;;;;;;5050590;28;20442;-76
2022/04/16 00:43:58;;;;;;;2.27;2.20;;;;;;;;;;5051367;28;20442;-76
2022/04/16 00:46:24;;;;;;;3.67;3.37;;;;;;;;;;5049639;28;20434;-73
2022/04/16 00:48:50;;;;;;;2.23;1.90;;;;;;;;;;5051723;28;20494;-73
2022/04/16 00:51:16;;;;;;;1.97;1.90;;;;;;;;;;5049372;28;20516;-73
2022/04/16 00:53:42;;;;;;;2.10;2.00;;;;;;;;;;5049930;28;20875;-73
2022/04/16 00:56:10;;;;;;;2.50;1.83;;;;;;;;;;5050151;28;20429;-73
2022/04/16 00:58:37;;;;;;;2.20;2.10;;;;;;;;;;5052794;28;20457;-73
2022/04/16 01:01:02;;;;;;;2.17;2.17;;;;;;;;;;5051788;28;20430;-74
2022/04/16 01:03:29;;;;;;;2.47;2.27;;;;;;;;;;5047072;28;20503;-76
2022/04/16 01:05:55;;;;;;;1.70;1.63;;;;;;;;;;5046733;28;20945;-74
2022/04/16 01:08:22;;;;;;;2.17;2.00;;;;;;;;;;5050720;28;20925;-74
2022/04/16 01:10:48;;;;;;;1.90;1.80;;;;;;;;;;5051024;28;21079;-74
2022/04/16 01:13:15;;;;;;;2.00;1.90;;;;;;;;;;5047795;28;20564;-73
2022/04/16 01:15:41;;;;;;;2.00;1.90;;;;;;;;;;5050052;28;20996;-74
2022/04/16 01:18:07;;;;;;;2.70;2.30;;;;;;;;;;5049693;28;20422;-76
2022/04/16 01:20:35;;;;;;;1.60;1.60;;;;;;;;;;5048714;28;20448;-74
2022/04/16 01:23:02;;;;;;;1.70;1.70;;;;;;;;;;5049910;28;20434;-76
2022/04/16 01:25:32;;;;;;;1.87;1.87;;;;;;;;;;5049687;28;20814;-73
2022/04/16 01:27:58;;;;;;;1.77;1.77;;;;;;;;;;5049201;28;20492;-75
2022/04/16 01:30:24;;;;;;;2.67;1.97;;;;;;;;;;5051075;28;20482;-74
2022/04/16 01:32:50;;;;;;;2.47;1.57;;;;;;;;;;5045625;28;20840;-75
2022/04/16 01:35:17;;;;;;;2.20;1.60;;;;;;;;;;5048319;28;20510;-74
2022/04/16 01:37:43;;;;;;;1.60;1.60;;;;;;;;;;5050995;28;20430;-75
2022/04/16 01:40:10;;;;;;;3.23;1.80;;;;;;;;;;5049217;28;20427;-77
2022/04/16 01:42:37;;;;;;;1.60;1.57;;;;;;;;;;5048758;28;21022;-74
2022/04/16 01:45:05;;;;;;;1.80;1.80;;;;;;;;;;5045851;28;20438;-74
2022/04/16 01:47:31;;;;;;;1.80;1.80;;;;;;;;;;5047935;28;20433;-74
2022/04/16 01:49:57;;;;;;;1.60;1.60;;;;;;;;;;5049368;28;20485;-74
2022/04/16 01:52:24;;;;;;;5.60;2.20;;;;;;;;;;5051217;28;20462;-74
2022/04/16 01:54:50;;;;;;;1.87;1.77;;;;;;;;;;5046447;28;20513;-75
2022/04/16 01:57:18;;;;;;;2.40;2.20;;;;;;;;;;5048542;28;20434;-74
2022/04/16 01:59:45;;;;;;;1.87;1.70;;;;;;;;;;5050151;28;20994;-75
2022/04/16 02:02:11;;;;;;;1.70;1.70;;;;;;;;;;5048200;28;20422;-76
2022/04/16 02:04:37;;;;;;;1.67;1.67;;;;;;;;;;5051596;28;20499;-76
2022/04/16 02:07:03;;;;;;;4.33;1.63;;;;;;;;;;5050124;28;20439;-75
2022/04/16 02:09:29;;;;;;;1.57;1.53;;;;;;;;;;5045335;28;20532;-76
2022/04/16 02:11:55;;;;;;;1.77;1.73;;;;;;;;;;5047713;28;22140;-75
2022/04/16 02:14:21;;;;;;;1.67;1.67;;;;;;;;;;5046685;28;20430;-75
2022/04/16 02:16:47;;;;;;;1.70;1.60;;;;;;;;;;5048849;28;20469;-76
2022/04/16 02:19:14;;;;;;;2.00;1.40;;;;;;;;;;5045384;28;20450;-76
2022/04/16 02:21:40;;;;;;;1.33;1.33;;;;;;;;;;5048045;28;20426;-74
2022/04/16 02:24:06;;;;;;;1.80;1.70;;;;;;;;;;5051061;28;20469;-74
2022/04/16 02:26:32;;;;;;;1.50;1.50;;;;;;;;;;5047583;28;20454;-76
2022/04/16 02:28:59;;;;;;;1.33;1.33;;;;;;;;;;5048007;28;21011;-74
2022/04/16 02:31:25;;;;;;;10.03;2.00;;;;;;;;;;5049691;28;20473;-74
2022/04/16 02:33:51;;;;;;;2.00;1.90;;;;;;;;;;5045807;28;20477;-76
2022/04/16 02:36:19;;;;;;;1.10;1.10;;;;;;;;;;5047704;28;20437;-75
2022/04/16 02:38:46;;;;;;;3.30;2.00;;;;;;;;;;5047090;28;20533;-73
2022/04/16 02:41:12;;;;;;;1.43;1.43;;;;;;;;;;5046595;28;20950;-73
2022/04/16 02:43:38;;;;;;;1.70;1.70;;;;;;;;;;5047648;28;20867;-73
2022/04/16 02:48:49;;;;;;;1.40;1.30;;;;;;;;;;5046260;28;20540;-77
2022/04/16 02:51:15;;;;;;;1.73;1.63;;;;;;;;;;5045870;28;20485;-75
2022/04/16 02:53:41;;;;;;;1.97;1.87;;;;;;;;;;5048736;28;20427;-73
2022/04/16 02:56:07;;;;;;;2.03;2.03;;;;;;;;;;5048201;28;20434;-74
2022/04/16 02:58:33;;;;;;;1.80;1.70;;;;;;;;;;5045119;28;20798;-74
2022/04/16 03:01:00;;;;;;;1.27;1.27;;;;;;;;;;5047097;28;20478;-74
2022/04/16 03:03:26;;;;;;;1.77;1.77;;;;;;;;;;5046334;28;20434;-77
2022/04/16 03:05:52;;;;;;;1.20;1.20;;;;;;;;;;5048417;28;20460;-76
2022/04/16 03:08:18;;;;;;;2.10;2.00;;;;;;;;;;5048552;28;20430;-76
2022/04/16 03:10:44;;;;;;;1.60;1.50;;;;;;;;;;5047410;28;20517;-76
2022/04/16 03:13:11;;;;;;;6.60;1.67;;;;;;;;;;5046137;28;20454;-77
2022/04/16 03:18:21;;;;;;;1.60;1.50;;;;;;;;;;5046653;28;20422;-77
2022/04/16 03:20:49;;;;;;;1.50;1.50;;;;;;;;;;5047833;28;20850;-76
2022/04/16 03:23:14;;;;;;;1.23;1.10;;;;;;;;;;5045748;28;20491;-76
2022/04/16 03:25:43;;;;;;;1.73;1.57;;;;;;;;;;5047440;28;20679;-75
2022/04/16 03:28:09;;;;;;;1.97;1.70;;;;;;;;;;5046512;28;20500;-73
2022/04/16 03:30:35;;;;;;;1.13;1.13;;;;;;;;;;5047268;28;20498;-74
2022/04/16 03:33:01;;;;;;;2.10;2.10;;;;;;;;;;5046217;28;20538;-74
2022/04/16 03:35:27;;;;;;;1.77;1.77;;;;;;;;;;5048810;28;20550;-75
2022/04/16 03:37:54;;;;;;;1.30;1.30;;;;;;;;;;5047573;28;20422;-73
2022/04/16 03:40:24;;;;;;;1.63;1.60;;;;;;;;;;5044864;28;20480;-76
2022/04/16 03:42:51;;;;;;;1.27;1.27;;;;;;;;;;5048255;28;20794;-74
2022/04/16 03:45:21;;;;;;;1.83;1.80;;;;;;;;;;5047050;28;20994;-76
2022/04/16 03:47:48;;;;;;;1.60;1.60;;;;;;;;;;5049014;28;20481;-75
2022/04/16 03:50:14;;;;;;;1.50;1.50;;;;;;;;;;5048284;28;20517;-73
2022/04/16 03:52:41;;;;;;;1.40;1.40;;;;;;;;;;5048035;28;20448;-74
2022/04/16 04:00:36;;;;;;;1.70;1.70;;;;;;;;;;5047466;28;20480;-74
2022/04/16 04:03:02;;;;;;;1.80;1.70;;;;;;;;;;5048062;28;20795;-75
2022/04/16 04:05:28;;;;;;;1.03;1.03;;;;;;;;;;5046456;28;20769;-75
2022/04/16 04:07:54;;;;;;;1.70;1.70;;;;;;;;;;5046995;28;20522;-75
2022/04/16 04:10:20;;;;;;;1.70;1.60;;;;;;;;;;5047357;28;20224;-76
2022/04/16 04:12:46;;;;;;;1.47;1.47;;;;;;;;;;5044204;28;20426;-76
2022/04/16 04:15:12;;;;;;;6.30;1.47;;;;;;;;;;5046243;28;20445;-76
2022/04/16 04:17:38;;;;;;;1.40;1.40;;;;;;;;;;5046638;28;20430;-74
2022/04/16 04:20:04;;;;;;;1.37;1.30;;;;;;;;;;5048891;28;20459;-75
2022/04/16 04:22:31;;;;;;;1.07;1.07;;;;;;;;;;5046060;28;20442;-74
2022/04/16 04:24:57;;;;;;;1.03;1.03;;;;;;;;;;5042599;28;20493;-73
2022/04/16 04:27:22;;;;;;;1.20;1.20;;;;;;;;;;5047874;28;20489;-77
2022/04/16 04:29:48;;;;;;;1.20;1.20;;;;;;;;;;5048922;28;20474;-77
2022/04/16 04:32:14;;;;;;;1.30;1.30;;;;;;;;;;5045712;28;20495;-74
2022/04/16 04:34:40;;;;;;;1.73;1.63;;;;;;;;;;5049325;28;20554;-73
2022/04/16 04:37:08;;;;;;;1.27;1.27;;;;;;;;;;5042858;28;20438;-73
2022/04/16 04:39:34;;;;;;;0.93;0.93;;;;;;;;;;5048521;28;20517;-74
2022/04/16 04:42:00;;;;;;;1.50;1.50;;;;;;;;;;5047244;28;20564;-75
2022/04/16 04:44:26;;;;;;;1.60;1.60;;;;;;;;;;5048072;28;20437;-75
2022/04/16 04:46:51;;;;;;;1.30;1.30;;;;;;;;;;5046243;28;20517;-77
2022/04/16 04:49:17;;;;;;;1.50;1.40;;;;;;;;;;5047453;28;20484;-75
2022/04/16 04:51:44;;;;;;;1.43;1.43;;;;;;;;;;5048332;28;20976;-75
2022/04/16 04:54:10;;;;;;;1.70;1.60;;;;;;;;;;5043428;28;20435;-76
2022/04/16 04:56:36;;;;;;;1.60;1.60;;;;;;;;;;5045388;28;20445;-73
2022/04/16 04:59:02;;;;;;;1.33;1.33;;;;;;;;;;5047354;28;20966;-74
2022/04/16 05:01:28;;;;;;;1.77;1.77;;;;;;;;;;5046507;28;20469;-75
2022/04/16 05:03:54;;;;;;;1.20;1.20;;;;;;;;;;5047470;28;20458;-73
2022/04/16 05:06:20;;;;;;;1.40;1.40;;;;;;;;;;5045974;28;20444;-74
2022/04/16 05:08:46;;;;;;;2.50;1.67;;;;;;;;;;5048029;28;20479;-75
2022/04/16 05:11:12;;;;;;;1.23;1.23;;;;;;;;;;5047555;28;20473;-74
2022/04/16 05:13:38;;;;;;;1.23;1.23;;;;;;;;;;5047870;28;20430;-74
2022/04/16 05:16:04;;;;;;;1.50;1.50;;;;;;;;;;5046222;28;20806;-72
2022/04/16 05:18:30;;;;;;;1.90;1.90;;;;;;;;;;5044552;28;20940;-75
2022/04/16 05:20:56;;;;;;;1.57;1.57;;;;;;;;;;5046999;28;20525;-74
2022/04/16 05:23:23;;;;;;;1.50;1.50;;;;;;;;;;5042507;28;20438;-73
2022/04/16 05:25:49;;;;;;;1.00;1.00;;;;;;;;;;5047291;28;20999;-75
2022/04/16 05:28:16;;;;;;;1.93;1.50;;;;;;;;;;5049308;28;20445;-75
2022/04/16 05:30:48;;;;;;;1.60;1.60;;;;;;;;;;5049863;28;20574;-76
2022/04/16 05:35:59;;;;;;;1.57;1.57;;;;;;;;;;5050197;28;20437;-75
2022/04/16 05:38:25;;;;;;;3.33;1.30;;;;;;;;;;5051111;28;20434;-75
2022/04/16 05:40:51;;;;;;;2.40;1.87;;;;;;;;;;5049727;28;20480;-75
2022/04/16 05:43:17;;;;;;;1.50;1.40;;;;;;;;;;5046938;28;20529;-75
2022/04/16 05:45:44;;;;;;;1.40;1.40;;;;;;;;;;5051022;28;20957;-76
2022/04/16 05:48:10;;;;;;;1.33;1.33;;;;;;;;;;5049902;28;20504;-77
2022/04/16 05:50:37;;;;;;;1.93;1.93;;;;;;;;;;5047065;28;21003;-75
2022/04/16 05:53:05;;;;;;;1.40;1.40;;;;;;;;;;5051045;28;20430;-74
2022/04/16 05:55:31;;;;;;;1.57;1.47;;;;;;;;;;5050014;28;20517;-76
2022/04/16 05:57:57;;;;;;;1.57;1.57;;;;;;;;;;5050894;28;20596;-76
2022/04/16 06:00:23;;;;;;;1.13;1.13;;;;;;;;;;5050075;28;20442;-77
2022/04/16 06:02:50;;;;;;;1.50;1.40;;;;;;;;;;5044255;28;20438;-75
2022/04/16 06:05:16;;;;;;;1.60;1.60;;;;;;;;;;5046608;28;20919;-73
2022/04/16 06:07:42;;;;;;;1.30;1.20;;;;;;;;;;5048721;28;20430;-73
2022/04/16 06:10:08;;;;;;;1.37;1.37;;;;;;;;;;5045138;28;20475;-75
2022/04/16 06:12:34;;;;;;;2.40;2.20;;;;;;;;;;5047546;28;20443;-76
2022/04/16 06:15:00;;;;;;;1.30;1.30;;;;;;;;;;5045791;28;20478;-74
2022/04/16 06:17:26;;;;;;;2.03;1.83;;;;;;;;;;5043979;28;20972;-76
2022/04/16 06:19:52;;;;;;;1.80;1.80;;;;;;;;;;5044954;28;20439;-73
2022/04/16 06:22:19;;;;;;;1.33;1.33;;;;;;;;;;5044733;28;20533;-73
2022/04/16 06:24:45;;;;;;;2.33;2.33;;;;;;;;;;5036507;28;20810;-77
2022/04/16 06:27:12;;;;;;;1.67;1.67;;;;;;;;;;5048790;28;20942;-76
2022/04/16 06:29:38;;;;;;;1.87;1.87;;;;;;;;;;5047510;28;20453;-76
2022/04/16 06:32:05;;;;;;;1.60;1.60;;;;;;;;;;5047637;28;20451;-76
2022/04/16 06:34:31;;;;;;;1.83;1.83;;;;;;;;;;5045096;28;20453;-74
2022/04/16 06:36:57;;;;;;;1.57;1.57;;;;;;;;;;5045912;28;20458;-74
2022/04/16 06:39:23;;;;;;;1.80;1.70;;;;;;;;;;5049463;28;20572;-75
2022/04/16 06:41:49;;;;;;;3.37;3.10;;;;;;;;;;5049904;28;20918;-78
2022/04/16 06:44:15;;;;;;;1.93;1.93;;;;;;;;;;5050663;28;20943;-76
2022/04/16 06:46:41;;;;;;;5.80;2.27;;;;;;;;;;5050158;28;20461;-77
2022/04/16 06:49:07;;;;;;;2.67;2.50;;;;;;;;;;5048144;28;20862;-74
2022/04/16 06:51:33;;;;;;;1.60;1.60;;;;;;;;;;5048410;28;20482;-74
2022/04/16 06:53:59;;;;;;;3.00;2.90;;;;;;;;;;5046048;28;20450;-70
2022/04/16 06:56:25;;;;;;;3.70;2.60;;;;;;;;;;5048030;28;20542;-71
2022/04/16 06:58:51;;;;;;;3.10;1.70;;;;;;;;;;5048495;28;20513;-70
2022/04/16 07:01:17;;;;;;;2.50;2.40;;;;;;;;;;5050319;28;20415;-69
2022/04/16 07:03:43;;;;;;;2.93;2.83;;;;;;;;;;5045185;28;20864;-68
2022/04/16 07:06:09;;;;;;;2.30;2.30;;;;;;;;;;5047058;28;20446;-75
2022/04/16 07:08:35;;;;;;;2.63;2.50;;;;;;;;;;5046764;28;20436;-74
2022/04/16 07:11:01;;;;;;;2.33;2.27;;;;;;;;;;5049127;28;20517;-75
2022/04/16 07:13:27;;;;;;;2.13;1.80;;;;;;;;;;5031614;28;20799;-75
2022/04/16 07:15:53;;;;;;;2.20;2.20;;;;;;;;;;5046362;28;20457;-74
2022/04/16 07:18:20;;;;;;;2.70;2.20;;;;;;;;;;5045260;28;20446;-75
2022/04/16 07:20:47;;;;;;;1.80;1.80;;;;;;;;;;5038944;28;20481;-76
2022/04/16 07:23:13;;;;;;;2.33;2.23;;;;;;;;;;5045863;28;20496;-75
2022/04/16 07:25:39;;;;;;;2.10;2.10;;;;;;;;;;5045640;28;20438;-75
2022/04/16 07:28:05;;;;;;;1.93;1.83;;;;;;;;;;5047210;28;20944;-74
2022/04/16 07:30:31;;;;;;;2.90;2.80;;;;;;;;;;5043404;28;20491;-75
2022/04/16 07:32:57;;;;;;;2.40;2.40;;;;;;;;;;5035679;28;20462;-76
2022/04/16 07:35:23;;;;;;;2.40;2.37;;;;;;;;;;5043155;28;20902;-75
2022/04/16 07:37:51;;;;;;;2.40;2.30;;;;;;;;;;5038520;28;20956;-76
2022/04/16 07:40:17;;;;;;;2.90;2.80;;;;;;;;;;5041917;28;20785;-74
2022/04/16 07:42:43;;;;;;;2.87;2.77;;;;;;;;;;5040288;28;20441;-75
2022/04/16 07:45:09;;;;;;;2.50;2.30;;;;;;;;;;5044247;28;20453;-74
2022/04/16 07:47:35;;;;;;;3.50;3.30;;;;;;;;;;5046651;28;20509;-75
2022/04/16 07:50:01;;;;;;;2.10;2.10;;;;;;;;;;5045202;28;20823;-75
2022/04/16 07:52:28;;;;;;;2.23;2.17;;;;;;;;;;5044536;28;20893;-74
2022/04/16 07:54:54;;;;;;;2.53;2.40;;;;;;;;;;5047029;28;20426;-74
2022/04/16 07:57:20;;;;;;;2.43;2.13;;;;;;;;;;5047337;28;20807;-75
2022/04/16 07:59:46;;;;;;;2.20;2.20;;;;;;;;;;5046977;28;20972;-74
2022/04/16 08:02:13;;;;;;;2.03;2.03;;;;;;;;;;5045079;28;20431;-75
2022/04/16 08:04:39;;;;;;;2.23;2.13;;;;;;;;;;5049176;28;20426;-75
2022/04/16 08:07:05;;;;;;;1.63;1.63;;;;;;;;;;5048561;28;20480;-75
2022/04/16 08:09:31;;;;;;;2.23;2.13;;;;;;;;;;5049153;28;20423;-75
2022/04/16 08:11:58;;;;;;;1.80;1.70;;;;;;;;;;5049116;28;20797;-75
2022/04/16 08:14:25;;;;;;;1.60;1.60;;;;;;;;;;5049416;28;20452;-75
2022/04/16 08:16:51;;;;;;;3.23;1.67;;;;;;;;;;5049166;28;20796;-75
2022/04/16 08:19:18;;;;;;;1.80;1.80;;;;;;;;;;5049490;28;20410;-75
2022/04/16 08:21:44;;;;;;;1.63;1.63;;;;;;;;;;5049070;28;20854;-75
2022/04/16 08:24:22;;;;;;;1.23;1.23;;;;;;;;;;5045717;28;20426;-74
2022/04/16 08:26:48;;;;;;;1.40;1.40;;;;;;;;;;5046658;28;20441;-75
2022/04/16 08:29:14;;;;;;;1.67;1.67;;;;;;;;;;5048349;28;20937;-75
2022/04/16 08:31:40;;;;;;;1.57;1.17;;;;;;;;;;5047857;28;20880;-76
2022/04/16 08:34:06;;;;;;;1.13;1.13;;;;;;;;;;5046982;28;20480;-74
2022/04/16 08:36:32;;;;;;;1.50;1.40;;;;;;;;;;5047848;28;20458;-75
2022/04/16 08:38:57;;;;;;;1.03;1.03;;;;;;;;;;5048908;28;20914;-75
2022/04/16 08:41:25;;;;;;;1.10;1.10;;;;;;;;;;5049399;28;20418;-75
2022/04/16 08:43:52;;;;;;;0.90;0.90;;;;;;;;;;5047583;28;20523;-76
2022/04/16 08:46:18;;;;;;;1.23;1.23;;;;;;;;;;5048761;28;20429;-74
2022/04/16 08:48:44;;;;;;;1.17;1.17;;;;;;;;;;5047992;28;20485;-74
2022/04/16 08:51:10;;;;;;;3.37;1.10;;;;;;;;;;5049118;28;20579;-75
2022/04/16 08:53:36;;;;;;;1.40;1.40;;;;;;;;;;5046348;28;20466;-76
2022/04/16 08:56:02;;;;;;;0.70;0.70;;;;;;;;;;5041854;28;20442;-74
2022/04/16 08:58:31;;;;;;;1.10;1.10;;;;;;;;;;5044686;28;21136;-74
2022/04/16 09:00:58;;;;;;;1.10;1.10;;;;;;;;;;5052510;28;20453;-74
2022/04/16 09:03:32;;;;;;;1.00;1.00;;;;;;;;;;5050524;28;20437;-75
2022/04/16 09:05:58;;;;;;;0.80;0.80;;;;;;;;;;5052700;28;20488;-74
2022/04/16 09:08:28;;;;;;;1.00;1.00;;;;;;;;;;5051387;28;20914;-75
2022/04/16 09:11:04;;;;;;;0.80;0.80;;;;;;;;;;5052570;28;20478;-74
2022/04/16 09:13:30;;;;;;;0.87;0.87;;;;;;;;;;5051575;28;20503;-76
2022/04/16 09:16:03;;;;;;;0.83;0.83;;;;;;;;;;5050392;28;20938;-75
2022/04/16 09:18:29;;;;;;;3.73;1.80;;;;;;;;;;5049413;28;20437;-76
2022/04/16 09:20:55;;;;;;;1.13;0.93;;;;;;;;;;5050471;28;20441;-76
2022/04/16 09:23:22;;;;;;;3.23;1.70;;;;;;;;;;5051794;28;20434;-76
2022/04/16 09:25:48;;;;;;;0.90;0.90;;;;;;;;;;5050051;28;20853;-77
2022/04/16 09:28:15;;;;;;;0.97;0.97;;;;;;;;;;5040355;28;20434;-75
2022/04/16 09:30:50;;;;;;;0.90;0.90;;;;;;;;;;5047233;28;20578;-76
2022/04/16 09:33:16;;;;;;;1.03;1.03;;;;;;;;;;5050037;28;20417;-75
2022/04/16 09:35:42;;;;;;;1.10;1.00;;;;;;;;;;5049970;28;20442;-76
2022/04/16 09:38:12;;;;;;;0.87;0.87;;;;;;;;;;5050935;28;20969;-77
2022/04/16 09:40:38;;;;;;;0.97;0.97;;;;;;;;;;5047977;28;20444;-75
2022/04/16 09:43:07;;;;;;;1.20;1.20;;;;;;;;;;5050537;28;20420;-79
2022/04/16 09:45:34;;;;;;;1.33;0.83;;;;;;;;;;5044845;28;20431;-76
2022/04/16 09:48:00;;;;;;;0.87;0.87;;;;;;;;;;5045794;28;20493;-76
2022/04/16 09:50:30;;;;;;;0.83;0.77;;;;;;;;;;5046649;28;20517;-75
2022/04/16 09:52:57;;;;;;;1.37;1.10;;;;;;;;;;5045535;28;20525;-76
2022/04/16 09:55:24;;;;;;;1.50;1.40;;;;;;;;;;5045542;28;20485;-76
2022/04/16 09:57:51;;;;;;;1.10;1.10;;;;;;;;;;5044284;28;20521;-75
2022/04/16 10:00:18;;;;;;;0.90;0.90;;;;;;;;;;5048832;28;20529;-76
2022/04/16 10:02:45;;;;;;;1.33;1.23;;;;;;;;;;5044950;28;20450;-75
2022/04/16 10:05:11;;;;;;;1.07;1.07;;;;;;;;;;5043697;28;20492;-76
2022/04/16 10:07:37;;;;;;;1.03;1.03;;;;;;;;;;5048267;28;20419;-77
2022/04/16 10:10:13;;;;;;;1.00;1.00;;;;;;;;;;5046504;28;20834;-84
2022/04/16 10:15:25;;;;;;;0.70;0.70;;;;;;;;;;5046513;28;20421;-77
2022/04/16 10:17:51;;;;;;;0.70;0.70;;;;;;;;;;5048643;28;20461;-76
2022/04/16 10:20:18;;;;;;;0.90;0.90;;;;;;;;;;5048130;28;20466;-76
2022/04/16 10:22:54;;;;;;;0.47;0.47;;;;;;;;;;5048244;28;20443;-76
2022/04/16 10:25:36;;;;;;;0.80;0.80;;;;;;;;;;5050739;28;20476;-76
2022/04/16 10:28:06;;;;;;;0.70;0.70;;;;;;;;;;5047146;28;20450;-76
2022/04/16 10:30:36;;;;;;;0.80;0.80;;;;;;;;;;5048952;28;20565;-76
2022/04/16 10:33:03;;;;;;;0.83;0.83;;;;;;;;;;5047560;28;20442;-76
2022/04/16 10:35:29;;;;;;;0.60;0.60;;;;;;;;;;5049961;28;20474;-76
2022/04/16 10:37:56;;;;;;;0.90;0.90;;;;;;;;;;5050240;28;20496;-75
2022/04/16 10:40:23;;;;;;;1.80;0.90;;;;;;;;;;5046045;28;20431;-76
2022/04/16 10:42:51;;;;;;;1.00;1.00;;;;;;;;;;5047640;28;20434;-77
2022/04/16 10:45:17;;;;;;;0.57;0.57;;;;;;;;;;5048150;28;20423;-76
2022/04/16 10:47:43;;;;;;;0.60;0.60;;;;;;;;;;5047522;28;20470;-76
2022/04/16 10:50:13;;;;;;;1.07;0.73;;;;;;;;;;5047127;28;20561;-76
2022/04/16 10:52:39;;;;;;;0.80;0.60;;;;;;;;;;5040825;28;20528;-75
2022/04/16 10:55:06;;;;;;;0.60;0.60;;;;;;;;;;5045585;28;20449;-75
2022/04/16 10:57:33;;;;;;;0.80;0.80;;;;;;;;;;5029653;28;20860;-75
2022/04/16 11:00:12;;;;;;;0.80;0.80;;;;;;;;;;5037899;28;20828;-76
2022/04/16 11:02:38;;;;;;;0.90;0.90;;;;;;;;;;5047257;28;20852;-71
2022/04/16 11:05:05;;;;;;;0.67;0.67;;;;;;;;;;5045765;28;20438;-74
2022/04/16 11:07:35;;;;;;;1.10;1.10;;;;;;;;;;5044411;28;20934;-75
2022/04/16 11:10:01;;;;;;;0.93;0.93;;;;;;;;;;5046410;28;20474;-76
2022/04/16 11:12:27;;;;;;;0.80;0.80;;;;;;;;;;5050351;28;20449;-75
2022/04/16 11:14:54;;;;;;;0.60;0.60;;;;;;;;;;5048175;28;20458;-76
2022/04/16 11:17:20;;;;;;;0.70;0.70;;;;;;;;;;5049675;28;20423;-75
2022/04/16 11:19:49;;;;;;;0.83;0.83;;;;;;;;;;5048685;28;20468;-75
2022/04/16 11:22:15;;;;;;;0.90;0.90;;;;;;;;;;5048924;28;20434;-76
2022/04/16 11:24:43;;;;;;;1.17;1.13;;;;;;;;;;5048652;28;20414;-74
2022/04/16 11:35:23;;;;;;;0.80;0.80;;;;;;;;;;5049956;28;20405;-76
2022/04/16 11:37:56;;;;;;;0.90;0.90;;;;;;;;;;5049482;28;20422;-75
2022/04/16 11:40:22;;;;;;;0.73;0.50;;;;;;;;;;5049579;28;20418;-75
2022/04/16 11:42:48;;;;;;;0.93;0.80;;;;;;;;;;5049910;28;20415;-76
2022/04/16 11:45:16;;;;;;;0.60;0.60;;;;;;;;;;5044794;28;20976;-76
2022/04/16 11:47:43;;;;;;;0.63;0.63;;;;;;;;;;5049079;28;20501;-76
2022/04/16 11:50:10;;;;;;;0.83;0.83;;;;;;;;;;5049441;28;20535;-75
2022/04/16 11:52:39;;;;;;;1.00;1.00;;;;;;;;;;5048578;28;20586;-76
2022/04/16 11:55:10;;;;;;;1.90;0.90;;;;;;;;;;5049619;28;20566;-75
2022/04/16 11:57:39;;;;;;;2.87;0.83;;;;;;;;;;5049046;28;20794;-74
2022/04/16 12:00:06;;;;;;;0.77;0.77;;;;;;;;;;5046042;28;20438;-75
2022/04/16 12:02:33;;;;;;;1.47;0.60;;;;;;;;;;5048305;28;20419;-76
2022/04/16 12:05:08;;;;;;;0.40;0.40;;;;;;;;;;5049816;28;20422;-76
2022/04/16 12:07:34;;;;;;;1.27;1.27;;;;;;;;;;5048865;28;21019;-76
2022/04/16 12:10:02;;;;;;;1.03;1.03;;;;;;;;;;5048827;28;20469;-75
2022/04/16 12:12:28;;;;;;;0.50;0.50;;;;;;;;;;5049618;28;20434;-76
2022/04/16 12:14:55;;;;;;;1.00;1.00;;;;;;;;;;5047924;28;20479;-76
2022/04/16 12:17:29;;;;;;;3.10;0.93;;;;;;;;;;5048905;28;20430;-74
2022/04/16 12:20:01;;;;;;;0.87;0.87;;;;;;;;;;5049001;28;20418;-76
2022/04/16 12:22:27;;;;;;;0.50;0.50;;;;;;;;;;5049482;28;20488;-77
2022/04/16 12:24:53;;;;;;;0.43;0.43;;;;;;;;;;5048954;28;20433;-75
2022/04/16 12:27:26;;;;;;;0.63;0.63;;;;;;;;;;5048843;28;20422;-76
2022/04/16 12:29:55;;;;;;;0.83;0.77;;;;;;;;;;5048239;28;20438;-75
2022/04/16 12:32:27;;;;;;;0.77;0.77;;;;;;;;;;5048192;28;20508;-76
2022/04/16 12:34:53;;;;;;;0.60;0.60;;;;;;;;;;5051253;28;20519;-76
2022/04/16 12:37:22;;;;;;;0.83;0.83;;;;;;;;;;5052763;28;20422;-76
2022/04/16 12:39:51;;;;;;;0.80;0.80;;;;;;;;;;5052839;28;20433;-76
2022/04/16 12:42:17;;;;;;;3.80;3.47;;;;;;;;;;5053399;28;20418;-76
2022/04/16 12:44:43;;;;;;;1.20;1.20;;;;;;;;;;5051739;28;20792;-74
2022/04/16 12:47:09;;;;;;;1.00;1.00;;;;;;;;;;5050845;28;20474;-74
2022/04/16 12:49:35;;;;;;;3.50;1.20;;;;;;;;;;5052663;28;20454;-75
2022/04/16 12:52:01;;;;;;;1.00;1.00;;;;;;;;;;5052875;28;21000;-75
2022/04/16 12:54:27;;;;;;;1.17;1.03;;;;;;;;;;5052797;28;20414;-76
2022/04/16 12:56:53;;;;;;;1.20;1.20;;;;;;;;;;5052304;28;20514;-75
2022/04/16 12:59:19;;;;;;;0.97;0.97;;;;;;;;;;5052827;28;20426;-76
2022/04/16 13:01:45;;;;;;;0.60;0.60;;;;;;;;;;5050205;28;20427;-77
2022/04/16 13:04:11;;;;;;;1.13;1.13;;;;;;;;;;5045718;28;20522;-76
2022/04/16 13:06:37;;;;;;;1.07;1.07;;;;;;;;;;5048810;28;20438;-76
2022/04/16 13:09:03;;;;;;;0.90;0.90;;;;;;;;;;5052415;28;20937;-77
2022/04/16 13:11:29;;;;;;;1.10;1.10;;;;;;;;;;5052556;28;20489;-77
2022/04/16 13:13:55;;;;;;;1.23;1.23;;;;;;;;;;5051155;28;20778;-76
2022/04/16 13:16:21;;;;;;;0.80;0.80;;;;;;;;;;5052346;28;20427;-76
2022/04/16 13:18:50;;;;;;;1.30;1.30;;;;;;;;;;5052653;28;20415;-76
2022/04/16 13:21:16;;;;;;;0.87;0.87;;;;;;;;;;5049873;28;20430;-75
2022/04/16 13:23:42;;;;;;;1.07;1.07;;;;;;;;;;5050750;28;21014;-76
2022/04/16 13:26:08;;;;;;;1.00;1.00;;;;;;;;;;5051838;28;20952;-75
2022/04/16 13:28:34;;;;;;;1.90;1.07;;;;;;;;;;5052469;28;20419;-77
2022/04/16 13:31:01;;;;;;;1.00;1.00;;;;;;;;;;5052166;28;20484;-75
2022/04/16 13:33:28;;;;;;;1.00;1.00;;;;;;;;;;5052380;28;20415;-75
2022/04/16 13:35:54;;;;;;;1.10;1.10;;;;;;;;;;5048967;28;20431;-74
2022/04/16 13:38:20;;;;;;;0.90;0.90;;;;;;;;;;5051156;28;20430;-74
2022/04/16 13:43:31;;;;;;;1.10;1.10;;;;;;;;;;5051669;28;20383;-76
2022/04/16 13:45:57;;;;;;;0.90;0.90;;;;;;;;;;5050259;28;20183;-76
2022/04/16 13:48:25;;;;;;;0.70;0.70;;;;;;;;;;5051586;28;20478;-76
2022/04/16 13:50:55;;;;;;;0.83;0.83;;;;;;;;;;5049882;28;20560;-76
2022/04/16 13:53:23;;;;;;;1.03;0.93;;;;;;;;;;5048435;28;20426;-75
2022/04/16 13:55:49;;;;;;;0.97;0.97;;;;;;;;;;5050916;28;20418;-76
2022/04/16 13:58:15;;;;;;;1.13;1.00;;;;;;;;;;5050414;28;20780;-76
2022/04/16 14:00:41;;;;;;;0.77;0.77;;;;;;;;;;5048065;28;20435;-75
2022/04/16 14:03:07;;;;;;;1.13;1.13;;;;;;;;;;5051728;28;20418;-75
2022/04/16 14:05:42;;;;;;;1.70;1.60;;;;;;;;;;5050808;28;20953;-76
2022/04/16 14:08:08;;;;;;;0.73;0.73;;;;;;;;;;5050826;28;20410;-75
2022/04/16 14:10:34;;;;;;;1.10;1.10;;;;;;;;;;5051646;28;20466;-75
2022/04/16 14:13:01;;;;;;;2.00;1.10;;;;;;;;;;5051437;28;20442;-75
2022/04/16 14:15:27;;;;;;;1.00;1.00;;;;;;;;;;5050241;28;20946;-75
2022/04/16 14:17:54;;;;;;;1.30;1.30;;;;;;;;;;5050858;28;20422;-75
2022/04/16 14:20:20;;;;;;;0.90;0.90;;;;;;;;;;5049325;28;20434;-75
2022/04/16 14:22:46;;;;;;;0.80;0.80;;;;;;;;;;5048798;28;20518;-75
2022/04/16 14:25:14;;;;;;;0.80;0.80;;;;;;;;;;5051376;28;20422;-74
2022/04/16 14:27:40;;;;;;;1.20;1.20;;;;;;;;;;5048795;28;20771;-74
2022/04/16 14:30:07;;;;;;;0.80;0.80;;;;;;;;;;5048944;28;20469;-75
2022/04/16 14:32:33;;;;;;;1.00;1.00;;;;;;;;;;5051207;28;20515;-75
2022/04/16 14:34:58;;;;;;;0.80;0.80;;;;;;;;;;5049353;28;20518;-76
2022/04/16 14:37:26;;;;;;;1.20;1.10;;;;;;;;;;5050465;28;20565;-74
2022/04/16 14:39:52;;;;;;;1.50;0.87;;;;;;;;;;5050936;28;20433;-75
2022/04/16 14:42:18;;;;;;;1.07;1.07;;;;;;;;;;5051018;28;20430;-76
2022/04/16 14:44:50;;;;;;;1.03;1.03;;;;;;;;;;5050972;28;20426;-75
2022/04/16 14:47:16;;;;;;;0.80;0.80;;;;;;;;;;5050341;28;20757;-75
2022/04/16 14:49:42;;;;;;;1.60;1.60;;;;;;;;;;5049812;28;20462;-75
2022/04/16 14:52:09;;;;;;;1.30;1.30;;;;;;;;;;5046024;28;20435;-75
2022/04/16 14:54:35;;;;;;;0.97;0.97;;;;;;;;;;5045188;28;20210;-75
2022/04/16 14:57:01;;;;;;;0.97;0.97;;;;;;;;;;5043932;28;20533;-76
2022/04/16 14:59:27;;;;;;;1.07;1.07;;;;;;;;;;5043901;28;20521;-74
2022/04/16 15:01:53;;;;;;;1.07;1.07;;;;;;;;;;5047683;28;20768;-75
2022/04/16 15:04:19;;;;;;;1.40;1.40;;;;;;;;;;5046486;28;20446;-75
2022/04/16 15:06:46;;;;;;;1.10;1.10;;;;;;;;;;5045177;28;20438;-74